AAL1821 KMIA-TNCM
Flight info
| Callsign | AAL1821 |
|---|---|
| Flight time | 2h 24m |
| Altitude | 37000 |
| Route | KLADA2 BITAC Y290 SLUGO ULUBA1 |
| Aircraft | A321/M-L/LB1 |
Departure
| Time | 2026-05-06 21:55 |
|---|---|
| Airport | Miami International Airport (KMIA) |
Arrival
| Time | 2026-05-07 00:19 |
|---|---|
| Airport | Princess Juliana International Airport (TNCM) |
| Time | Latitude | Longitude | Altitude | Speed | Heading |
|---|---|---|---|---|---|
| 2026-05-06 21:52 | 25.79998 | -80.30048 | 13 ft | 0 kts | 285° |
| 2026-05-06 21:52 | 25.79998 | -80.30050 | 13 ft | 1 kts | 285° |
| 2026-05-06 21:52 | 25.80001 | -80.30061 | 13 ft | 2 kts | 285° |
| 2026-05-06 21:53 | 25.80011 | -80.30098 | 16 ft | 6 kts | 290° |
| 2026-05-06 21:53 | 25.80043 | -80.30124 | 14 ft | 6 kts | 346° |
| 2026-05-06 21:53 | 25.80076 | -80.30103 | 14 ft | 6 kts | 71° |
| 2026-05-06 21:53 | 25.80075 | -80.30079 | 13 ft | 0 kts | 92° |
| 2026-05-06 21:54 | 25.80075 | -80.30077 | 13 ft | 2 kts | 92° |
| 2026-05-06 21:54 | 25.80070 | -80.29828 | 13 ft | 67 kts | 87° |
| 2026-05-06 21:54 | 25.80115 | -80.29073 | 17 ft | 127 kts | 87° |
| 2026-05-06 21:54 | 25.80165 | -80.27904 | 57 ft | 169 kts | 88° |
| 2026-05-06 21:55 | 25.80254 | -80.26607 | 692 ft | 168 kts | 87° |
| 2026-05-06 21:55 | 25.80285 | -80.25308 | 1281 ft | 172 kts | 103° |
| 2026-05-06 21:55 | 25.79778 | -80.24029 | 1582 ft | 191 kts | 118° |
| 2026-05-06 21:55 | 25.79104 | -80.22698 | 1945 ft | 206 kts | 119° |
| 2026-05-06 21:56 | 25.78367 | -80.21237 | 2065 ft | 231 kts | 119° |
| 2026-05-06 21:56 | 25.77533 | -80.19583 | 2281 ft | 255 kts | 118° |
| 2026-05-06 21:56 | 25.76700 | -80.17820 | 2912 ft | 260 kts | 117° |
| 2026-05-06 21:56 | 25.75860 | -80.16017 | 3538 ft | 265 kts | 118° |
| 2026-05-06 21:57 | 25.74974 | -80.14203 | 4188 ft | 270 kts | 119° |
| 2026-05-06 21:57 | 25.74054 | -80.12367 | 4861 ft | 273 kts | 120° |
| 2026-05-06 21:57 | 25.73203 | -80.10508 | 5477 ft | 277 kts | 111° |
| 2026-05-06 21:57 | 25.72519 | -80.08496 | 6127 ft | 280 kts | 110° |
| 2026-05-06 21:58 | 25.71840 | -80.06463 | 6778 ft | 282 kts | 110° |
| 2026-05-06 21:58 | 25.71158 | -80.04415 | 7414 ft | 284 kts | 109° |
| 2026-05-06 21:58 | 25.70468 | -80.02353 | 7986 ft | 288 kts | 108° |
| 2026-05-06 21:58 | 25.69771 | -80.00256 | 8547 ft | 292 kts | 108° |
| 2026-05-06 21:59 | 25.69075 | -79.98129 | 9122 ft | 295 kts | 108° |
| 2026-05-06 21:59 | 25.68378 | -79.95975 | 9775 ft | 297 kts | 107° |
| 2026-05-06 21:59 | 25.67676 | -79.93811 | 10218 ft | 304 kts | 108° |
| 2026-05-06 21:59 | 25.66928 | -79.91531 | 10320 ft | 324 kts | 108° |
| 2026-05-06 22:00 | 25.66128 | -79.89123 | 10450 ft | 342 kts | 108° |
| 2026-05-06 22:00 | 25.65285 | -79.86605 | 10754 ft | 352 kts | 108° |
| 2026-05-06 22:00 | 25.64426 | -79.84049 | 11232 ft | 355 kts | 108° |
| 2026-05-06 22:00 | 25.63559 | -79.81475 | 11749 ft | 358 kts | 108° |
| 2026-05-06 22:01 | 25.62691 | -79.78885 | 12260 ft | 360 kts | 107° |
| 2026-05-06 22:01 | 25.61817 | -79.76270 | 12770 ft | 363 kts | 107° |
| 2026-05-06 22:01 | 25.60951 | -79.73677 | 13256 ft | 365 kts | 107° |
| 2026-05-06 22:01 | 25.60068 | -79.71031 | 13767 ft | 367 kts | 107° |
| 2026-05-06 22:02 | 25.59166 | -79.68373 | 14211 ft | 370 kts | 108° |
| 2026-05-06 22:02 | 25.58217 | -79.65707 | 14622 ft | 374 kts | 108° |
| 2026-05-06 22:02 | 25.57231 | -79.63021 | 15038 ft | 378 kts | 109° |
| 2026-05-06 22:02 | 25.56229 | -79.60321 | 15443 ft | 381 kts | 109° |
| 2026-05-06 22:03 | 25.55218 | -79.57591 | 15839 ft | 385 kts | 109° |
| 2026-05-06 22:03 | 25.54201 | -79.54832 | 16234 ft | 388 kts | 109° |
| 2026-05-06 22:03 | 25.53180 | -79.52051 | 16618 ft | 392 kts | 109° |
| 2026-05-06 22:03 | 25.52151 | -79.49234 | 17012 ft | 396 kts | 109° |
| 2026-05-06 22:04 | 25.51113 | -79.46396 | 17406 ft | 399 kts | 109° |
| 2026-05-06 22:04 | 25.50063 | -79.43536 | 17813 ft | 403 kts | 109° |
| 2026-05-06 22:04 | 25.49001 | -79.40646 | 18181 ft | 407 kts | 109° |
| 2026-05-06 22:04 | 25.47929 | -79.37734 | 18531 ft | 410 kts | 109° |
| 2026-05-06 22:05 | 25.46846 | -79.34798 | 18872 ft | 413 kts | 109° |
| 2026-05-06 22:05 | 25.45750 | -79.31841 | 19228 ft | 416 kts | 109° |
| 2026-05-06 22:05 | 25.44650 | -79.28865 | 19594 ft | 419 kts | 109° |
| 2026-05-06 22:05 | 25.43562 | -79.25913 | 19942 ft | 422 kts | 109° |
| 2026-05-06 22:06 | 25.42440 | -79.22862 | 20302 ft | 424 kts | 109° |
| 2026-05-06 22:06 | 25.41336 | -79.19864 | 20673 ft | 427 kts | 109° |
| 2026-05-06 22:06 | 25.40199 | -79.16774 | 21042 ft | 430 kts | 109° |
| 2026-05-06 22:06 | 25.39064 | -79.13695 | 21400 ft | 433 kts | 109° |
| 2026-05-06 22:07 | 25.37940 | -79.10646 | 21757 ft | 436 kts | 109° |
| 2026-05-06 22:07 | 25.36791 | -79.07534 | 22093 ft | 438 kts | 109° |
| 2026-05-06 22:07 | 25.35632 | -79.04404 | 22436 ft | 441 kts | 109° |
| 2026-05-06 22:07 | 25.34465 | -79.01258 | 22788 ft | 443 kts | 109° |
| 2026-05-06 22:08 | 25.33291 | -78.98098 | 23101 ft | 445 kts | 109° |
| 2026-05-06 22:08 | 25.32113 | -78.94927 | 23401 ft | 448 kts | 109° |
| 2026-05-06 22:08 | 25.30925 | -78.91736 | 23710 ft | 450 kts | 109° |
| 2026-05-06 22:08 | 25.29732 | -78.88530 | 23975 ft | 452 kts | 109° |
| 2026-05-06 22:09 | 25.28532 | -78.85308 | 24242 ft | 454 kts | 109° |
| 2026-05-06 22:09 | 25.27325 | -78.82071 | 24520 ft | 456 kts | 109° |
| 2026-05-06 22:09 | 25.26116 | -78.78823 | 24780 ft | 458 kts | 109° |
| 2026-05-06 22:09 | 25.24900 | -78.75554 | 25040 ft | 460 kts | 109° |
| 2026-05-06 22:10 | 25.23681 | -78.72280 | 25289 ft | 462 kts | 109° |
| 2026-05-06 22:10 | 25.22452 | -78.68987 | 25564 ft | 464 kts | 109° |
| 2026-05-06 22:10 | 25.21220 | -78.65689 | 25829 ft | 466 kts | 109° |
| 2026-05-06 22:10 | 25.19980 | -78.62375 | 26082 ft | 468 kts | 109° |
| 2026-05-06 22:11 | 25.18734 | -78.59051 | 26370 ft | 469 kts | 109° |
| 2026-05-06 22:11 | 25.17473 | -78.55724 | 26640 ft | 471 kts | 110° |
| 2026-05-06 22:11 | 25.16156 | -78.52403 | 26898 ft | 473 kts | 111° |
| 2026-05-06 22:11 | 25.14793 | -78.49088 | 27152 ft | 475 kts | 112° |
| 2026-05-06 22:12 | 25.13401 | -78.45772 | 27409 ft | 477 kts | 112° |
| 2026-05-06 22:12 | 25.12017 | -78.42484 | 27650 ft | 479 kts | 112° |
| 2026-05-06 22:12 | 25.10619 | -78.39138 | 27902 ft | 481 kts | 112° |
| 2026-05-06 22:12 | 25.09226 | -78.35773 | 28148 ft | 483 kts | 111° |
| 2026-05-06 22:13 | 25.07837 | -78.32392 | 28391 ft | 485 kts | 111° |
| 2026-05-06 22:13 | 25.06444 | -78.28994 | 28629 ft | 487 kts | 111° |
| 2026-05-06 22:13 | 25.05044 | -78.25580 | 28855 ft | 489 kts | 111° |
| 2026-05-06 22:13 | 25.03642 | -78.22159 | 29090 ft | 491 kts | 111° |
| 2026-05-06 22:14 | 25.02233 | -78.18724 | 29325 ft | 493 kts | 111° |
| 2026-05-06 22:14 | 25.00815 | -78.15277 | 29557 ft | 495 kts | 112° |
| 2026-05-06 22:14 | 24.99384 | -78.11810 | 29791 ft | 497 kts | 112° |
| 2026-05-06 22:14 | 24.97946 | -78.08337 | 30027 ft | 499 kts | 112° |
| 2026-05-06 22:15 | 24.96504 | -78.04855 | 30245 ft | 501 kts | 112° |
| 2026-05-06 22:15 | 24.95053 | -78.01356 | 30449 ft | 502 kts | 112° |
| 2026-05-06 22:15 | 24.93601 | -77.97858 | 30721 ft | 502 kts | 112° |
| 2026-05-06 22:15 | 24.92150 | -77.94361 | 31017 ft | 502 kts | 112° |
| 2026-05-06 22:16 | 24.90699 | -77.90866 | 31293 ft | 502 kts | 112° |
| 2026-05-06 22:16 | 24.89248 | -77.87376 | 31566 ft | 501 kts | 112° |
| 2026-05-06 22:16 | 24.87793 | -77.83878 | 31838 ft | 501 kts | 112° |
| 2026-05-06 22:16 | 24.86359 | -77.80435 | 32106 ft | 501 kts | 112° |
| 2026-05-06 22:17 | 24.84889 | -77.76901 | 32377 ft | 501 kts | 112° |
| 2026-05-06 22:17 | 24.83439 | -77.73414 | 32646 ft | 501 kts | 112° |
| 2026-05-06 22:17 | 24.81984 | -77.69926 | 32915 ft | 501 kts | 112° |
| 2026-05-06 22:17 | 24.80528 | -77.66441 | 33210 ft | 500 kts | 112° |
| 2026-05-06 22:18 | 24.79077 | -77.62967 | 33505 ft | 499 kts | 112° |
| 2026-05-06 22:18 | 24.77627 | -77.59498 | 33775 ft | 499 kts | 112° |
| 2026-05-06 22:18 | 24.76192 | -77.56073 | 34031 ft | 499 kts | 112° |
| 2026-05-06 22:18 | 24.74728 | -77.52608 | 34250 ft | 499 kts | 112° |
| 2026-05-06 22:19 | 24.73217 | -77.49166 | 34461 ft | 500 kts | 113° |
| 2026-05-06 22:19 | 24.71661 | -77.45745 | 34683 ft | 500 kts | 114° |
| 2026-05-06 22:19 | 24.70081 | -77.42343 | 34894 ft | 500 kts | 114° |
| 2026-05-06 22:19 | 24.68488 | -77.38942 | 35108 ft | 500 kts | 114° |
| 2026-05-06 22:20 | 24.66900 | -77.35544 | 35331 ft | 500 kts | 114° |
| 2026-05-06 22:20 | 24.65324 | -77.32141 | 35526 ft | 500 kts | 114° |
| 2026-05-06 22:20 | 24.63757 | -77.28732 | 35749 ft | 499 kts | 114° |
| 2026-05-06 22:20 | 24.62196 | -77.25317 | 35957 ft | 499 kts | 114° |
| 2026-05-06 22:21 | 24.61162 | -77.23049 | 36088 ft | 499 kts | 114° |
| 2026-05-06 22:21 | 24.59606 | -77.19643 | 36281 ft | 499 kts | 114° |
| 2026-05-06 22:21 | 24.58044 | -77.16226 | 36460 ft | 499 kts | 113° |
| 2026-05-06 22:21 | 24.55977 | -77.11705 | 36704 ft | 499 kts | 114° |
| 2026-05-06 22:22 | 24.54925 | -77.09407 | 36818 ft | 499 kts | 114° |
| 2026-05-06 22:22 | 24.53363 | -77.06002 | 37005 ft | 499 kts | 114° |
| 2026-05-06 22:22 | 24.50225 | -76.99197 | 37065 ft | 499 kts | 114° |
| 2026-05-06 22:23 | 24.47079 | -76.92405 | 37069 ft | 499 kts | 114° |
| 2026-05-06 22:23 | 24.43935 | -76.85614 | 37074 ft | 499 kts | 114° |
| 2026-05-06 22:24 | 24.40820 | -76.78878 | 37066 ft | 497 kts | 113° |
| 2026-05-06 22:24 | 24.37692 | -76.72114 | 37067 ft | 497 kts | 113° |
| 2026-05-06 22:25 | 24.34554 | -76.65346 | 37074 ft | 498 kts | 113° |
| 2026-05-06 22:25 | 24.31412 | -76.58578 | 37079 ft | 498 kts | 113° |
| 2026-05-06 22:26 | 24.28261 | -76.51811 | 37083 ft | 498 kts | 113° |
| 2026-05-06 22:26 | 24.25106 | -76.45040 | 37095 ft | 499 kts | 113° |
| 2026-05-06 22:27 | 24.21946 | -76.38282 | 37094 ft | 498 kts | 113° |
| 2026-05-06 22:27 | 24.18779 | -76.31526 | 37093 ft | 498 kts | 113° |
| 2026-05-06 22:28 | 24.15614 | -76.24776 | 37090 ft | 498 kts | 113° |
| 2026-05-06 22:28 | 24.12473 | -76.18064 | 37092 ft | 498 kts | 113° |
| 2026-05-06 22:29 | 24.09310 | -76.11316 | 37099 ft | 498 kts | 113° |
| 2026-05-06 22:29 | 24.06142 | -76.04580 | 37095 ft | 498 kts | 113° |
| 2026-05-06 22:30 | 24.02970 | -75.97844 | 37095 ft | 498 kts | 113° |
| 2026-05-06 22:30 | 23.99797 | -75.91106 | 37096 ft | 498 kts | 113° |
| 2026-05-06 22:31 | 23.96614 | -75.84378 | 37097 ft | 498 kts | 113° |
| 2026-05-06 22:31 | 23.93433 | -75.77655 | 37099 ft | 497 kts | 113° |
| 2026-05-06 22:32 | 23.90258 | -75.70942 | 37093 ft | 497 kts | 113° |
| 2026-05-06 22:32 | 23.87078 | -75.64237 | 37096 ft | 497 kts | 113° |
| 2026-05-06 22:33 | 23.83902 | -75.57544 | 37089 ft | 496 kts | 113° |
| 2026-05-06 22:33 | 23.80720 | -75.50852 | 37090 ft | 496 kts | 113° |
| 2026-05-06 22:34 | 23.77552 | -75.44208 | 37095 ft | 496 kts | 113° |
| 2026-05-06 22:34 | 23.74360 | -75.37519 | 37098 ft | 496 kts | 113° |
| 2026-05-06 22:35 | 23.71168 | -75.30837 | 37096 ft | 496 kts | 113° |
| 2026-05-06 22:35 | 23.67982 | -75.24154 | 37096 ft | 496 kts | 113° |
| 2026-05-06 22:36 | 23.64789 | -75.17480 | 37091 ft | 496 kts | 113° |
| 2026-05-06 22:36 | 23.61594 | -75.10819 | 37095 ft | 495 kts | 113° |
| 2026-05-06 22:37 | 23.58398 | -75.04163 | 37090 ft | 495 kts | 113° |
| 2026-05-06 22:37 | 23.55199 | -74.97519 | 37096 ft | 494 kts | 113° |
| 2026-05-06 22:38 | 23.52009 | -74.90885 | 37097 ft | 494 kts | 113° |
| 2026-05-06 22:38 | 23.48820 | -74.84256 | 37098 ft | 494 kts | 113° |
| 2026-05-06 22:39 | 23.45625 | -74.77635 | 37095 ft | 494 kts | 113° |
| 2026-05-06 22:39 | 23.42424 | -74.71023 | 37095 ft | 493 kts | 113° |
| 2026-05-06 22:40 | 23.39244 | -74.64462 | 37096 ft | 493 kts | 113° |
| 2026-05-06 22:40 | 23.36039 | -74.57866 | 37097 ft | 493 kts | 113° |
| 2026-05-06 22:41 | 23.31234 | -74.47970 | 37094 ft | 493 kts | 113° |
| 2026-05-06 22:42 | 23.28028 | -74.41371 | 37096 ft | 493 kts | 113° |
| 2026-05-06 22:42 | 23.24813 | -74.34785 | 37100 ft | 492 kts | 113° |
| 2026-05-06 22:43 | 23.21605 | -74.28210 | 37098 ft | 492 kts | 113° |
| 2026-05-06 22:43 | 23.18401 | -74.21643 | 37096 ft | 492 kts | 113° |
| 2026-05-06 22:44 | 23.15195 | -74.15074 | 37098 ft | 492 kts | 113° |
| 2026-05-06 22:44 | 23.11987 | -74.08509 | 37097 ft | 492 kts | 113° |
| 2026-05-06 22:45 | 23.08776 | -74.01953 | 37094 ft | 492 kts | 113° |
| 2026-05-06 22:45 | 23.05556 | -73.95402 | 37101 ft | 492 kts | 113° |
| 2026-05-06 22:46 | 23.02348 | -73.88893 | 37096 ft | 492 kts | 113° |
| 2026-05-06 22:46 | 22.99122 | -73.82340 | 37095 ft | 492 kts | 113° |
| 2026-05-06 22:47 | 22.95900 | -73.75783 | 37097 ft | 492 kts | 113° |
| 2026-05-06 22:47 | 22.92669 | -73.69228 | 37097 ft | 492 kts | 113° |
| 2026-05-06 22:48 | 22.89427 | -73.62675 | 37109 ft | 493 kts | 113° |
| 2026-05-06 22:48 | 22.86183 | -73.56124 | 37095 ft | 492 kts | 113° |
| 2026-05-06 22:49 | 22.82963 | -73.49633 | 37097 ft | 492 kts | 113° |
| 2026-05-06 22:49 | 22.79722 | -73.43103 | 37099 ft | 492 kts | 113° |
| 2026-05-06 22:50 | 22.76477 | -73.36565 | 37100 ft | 492 kts | 113° |
| 2026-05-06 22:50 | 22.73239 | -73.30046 | 37112 ft | 491 kts | 113° |
| 2026-05-06 22:51 | 22.69987 | -73.23519 | 37097 ft | 492 kts | 113° |
| 2026-05-06 22:51 | 22.66731 | -73.17002 | 37095 ft | 492 kts | 113° |
| 2026-05-06 22:52 | 22.63473 | -73.10477 | 37093 ft | 492 kts | 113° |
| 2026-05-06 22:52 | 22.60212 | -73.03954 | 37093 ft | 492 kts | 113° |
| 2026-05-06 22:53 | 22.56972 | -72.97484 | 37094 ft | 492 kts | 113° |
| 2026-05-06 22:53 | 22.53707 | -72.90968 | 37100 ft | 493 kts | 113° |
| 2026-05-06 22:54 | 22.50441 | -72.84453 | 37095 ft | 493 kts | 113° |
| 2026-05-06 22:54 | 22.47167 | -72.77941 | 37091 ft | 493 kts | 113° |
| 2026-05-06 22:55 | 22.43897 | -72.71438 | 37096 ft | 492 kts | 113° |
| 2026-05-06 22:55 | 22.40623 | -72.64930 | 37091 ft | 492 kts | 113° |
| 2026-05-06 22:56 | 22.37343 | -72.58435 | 37104 ft | 492 kts | 113° |
| 2026-05-06 22:56 | 22.34063 | -72.51938 | 37100 ft | 492 kts | 113° |
| 2026-05-06 22:57 | 22.30785 | -72.45446 | 37099 ft | 492 kts | 113° |
| 2026-05-06 22:57 | 22.27520 | -72.38994 | 37098 ft | 493 kts | 113° |
| 2026-05-06 22:58 | 22.24224 | -72.32509 | 37095 ft | 493 kts | 113° |
| 2026-05-06 22:58 | 22.20930 | -72.26024 | 37095 ft | 493 kts | 113° |
| 2026-05-06 22:59 | 22.17641 | -72.19539 | 37105 ft | 493 kts | 112° |
| 2026-05-06 22:59 | 22.14344 | -72.13053 | 37103 ft | 493 kts | 113° |
| 2026-05-06 23:00 | 22.11034 | -72.06571 | 37096 ft | 493 kts | 113° |
| 2026-05-06 23:00 | 22.07726 | -72.00085 | 37087 ft | 493 kts | 113° |
| 2026-05-06 23:01 | 22.04423 | -71.93607 | 37098 ft | 493 kts | 113° |
| 2026-05-06 23:01 | 22.01112 | -71.87126 | 37114 ft | 493 kts | 112° |
| 2026-05-06 23:02 | 21.97823 | -71.80703 | 37101 ft | 493 kts | 112° |
| 2026-05-06 23:02 | 21.94507 | -71.74242 | 37104 ft | 493 kts | 113° |
| 2026-05-06 23:03 | 21.91182 | -71.67777 | 37109 ft | 493 kts | 113° |
| 2026-05-06 23:03 | 21.87864 | -71.61322 | 37109 ft | 493 kts | 113° |
| 2026-05-06 23:04 | 21.84545 | -71.54870 | 37114 ft | 493 kts | 113° |
| 2026-05-06 23:04 | 21.81222 | -71.48424 | 37113 ft | 493 kts | 113° |
| 2026-05-06 23:05 | 21.77898 | -71.41977 | 37104 ft | 492 kts | 113° |
| 2026-05-06 23:05 | 21.74568 | -71.35534 | 37094 ft | 492 kts | 113° |
| 2026-05-06 23:06 | 21.71242 | -71.29098 | 37094 ft | 492 kts | 113° |
| 2026-05-06 23:06 | 21.67919 | -71.22662 | 37095 ft | 492 kts | 113° |
| 2026-05-06 23:07 | 21.64588 | -71.16233 | 37099 ft | 492 kts | 113° |
| 2026-05-06 23:07 | 21.61273 | -71.09854 | 37100 ft | 492 kts | 113° |
| 2026-05-06 23:08 | 21.57928 | -71.03445 | 37093 ft | 493 kts | 116° |
| 2026-05-06 23:08 | 21.54074 | -70.97304 | 37101 ft | 496 kts | 118° |
| 2026-05-06 23:09 | 21.50181 | -70.91189 | 37105 ft | 496 kts | 118° |
| 2026-05-06 23:09 | 21.46943 | -70.86098 | 37113 ft | 496 kts | 118° |
| 2026-05-06 23:10 | 21.43052 | -70.79980 | 37101 ft | 496 kts | 118° |
| 2026-05-06 23:10 | 21.39155 | -70.73865 | 37093 ft | 496 kts | 118° |
| 2026-05-06 23:11 | 21.35256 | -70.67757 | 37094 ft | 496 kts | 118° |
| 2026-05-06 23:11 | 21.31355 | -70.61647 | 37097 ft | 496 kts | 118° |
| 2026-05-06 23:12 | 21.27476 | -70.55583 | 37093 ft | 496 kts | 119° |
| 2026-05-06 23:12 | 21.23571 | -70.49495 | 37104 ft | 495 kts | 119° |
| 2026-05-06 23:13 | 21.19654 | -70.43376 | 37094 ft | 495 kts | 119° |
| 2026-05-06 23:13 | 21.15782 | -70.37342 | 37093 ft | 494 kts | 119° |
| 2026-05-06 23:14 | 21.11883 | -70.31277 | 37093 ft | 494 kts | 119° |
| 2026-05-06 23:14 | 21.07982 | -70.25206 | 37102 ft | 494 kts | 119° |
| 2026-05-06 23:15 | 21.04081 | -70.19132 | 37112 ft | 495 kts | 119° |
| 2026-05-06 23:15 | 21.00172 | -70.13069 | 37106 ft | 495 kts | 119° |
| 2026-05-06 23:16 | 20.96255 | -70.07009 | 37101 ft | 495 kts | 119° |
| 2026-05-06 23:16 | 20.92346 | -70.00959 | 37098 ft | 494 kts | 119° |
| 2026-05-06 23:17 | 20.88464 | -69.94950 | 37095 ft | 494 kts | 119° |
| 2026-05-06 23:17 | 20.84551 | -69.88906 | 37103 ft | 493 kts | 119° |
| 2026-05-06 23:18 | 20.80648 | -69.82886 | 37109 ft | 493 kts | 120° |
| 2026-05-06 23:18 | 20.76746 | -69.76867 | 37105 ft | 492 kts | 120° |
| 2026-05-06 23:19 | 20.72844 | -69.70855 | 37100 ft | 492 kts | 120° |
| 2026-05-06 23:19 | 20.68943 | -69.64854 | 37101 ft | 492 kts | 120° |
| 2026-05-06 23:20 | 20.65040 | -69.58867 | 37100 ft | 491 kts | 120° |
| 2026-05-06 23:20 | 20.61135 | -69.52878 | 37099 ft | 491 kts | 120° |
| 2026-05-06 23:21 | 20.57238 | -69.46894 | 37105 ft | 491 kts | 120° |
| 2026-05-06 23:21 | 20.53367 | -69.40956 | 37103 ft | 490 kts | 120° |
| 2026-05-06 23:22 | 20.49463 | -69.34988 | 37100 ft | 490 kts | 120° |
| 2026-05-06 23:22 | 20.45567 | -69.29042 | 37103 ft | 489 kts | 120° |
| 2026-05-06 23:23 | 20.41670 | -69.23089 | 37106 ft | 489 kts | 120° |
| 2026-05-06 23:23 | 20.37778 | -69.17152 | 37118 ft | 488 kts | 120° |
| 2026-05-06 23:24 | 20.33891 | -69.11219 | 37114 ft | 487 kts | 120° |
| 2026-05-06 23:24 | 20.30009 | -69.05309 | 37111 ft | 486 kts | 120° |
| 2026-05-06 23:25 | 20.26128 | -68.99418 | 37108 ft | 486 kts | 120° |
| 2026-05-06 23:25 | 20.22250 | -68.93525 | 37112 ft | 485 kts | 120° |
| 2026-05-06 23:26 | 20.18377 | -68.87646 | 37105 ft | 485 kts | 120° |
| 2026-05-06 23:26 | 20.14506 | -68.81768 | 37115 ft | 484 kts | 121° |
| 2026-05-06 23:27 | 20.10648 | -68.75920 | 37112 ft | 484 kts | 121° |
| 2026-05-06 23:27 | 20.06793 | -68.70062 | 37112 ft | 483 kts | 120° |
| 2026-05-06 23:28 | 20.03114 | -68.64165 | 37108 ft | 481 kts | 118° |
| 2026-05-06 23:28 | 19.99464 | -68.58143 | 37112 ft | 481 kts | 118° |
| 2026-05-06 23:29 | 19.95814 | -68.52187 | 37120 ft | 481 kts | 120° |
| 2026-05-06 23:29 | 19.92157 | -68.46300 | 37114 ft | 480 kts | 120° |
| 2026-05-06 23:30 | 19.88471 | -68.40391 | 37109 ft | 479 kts | 120° |
| 2026-05-06 23:30 | 19.84795 | -68.34491 | 37108 ft | 479 kts | 120° |
| 2026-05-06 23:31 | 19.81130 | -68.28590 | 37112 ft | 479 kts | 120° |
| 2026-05-06 23:31 | 19.77454 | -68.22687 | 37111 ft | 479 kts | 120° |
| 2026-05-06 23:32 | 19.73779 | -68.16782 | 37114 ft | 479 kts | 120° |
| 2026-05-06 23:32 | 19.70100 | -68.10884 | 37113 ft | 479 kts | 121° |
| 2026-05-06 23:33 | 19.66750 | -68.04826 | 37113 ft | 471 kts | 105° |
| 2026-05-06 23:33 | 19.64870 | -67.98193 | 37111 ft | 470 kts | 102° |
| 2026-05-06 23:34 | 19.63033 | -67.91545 | 37110 ft | 470 kts | 103° |
| 2026-05-06 23:34 | 19.61179 | -67.84895 | 37110 ft | 470 kts | 103° |
| 2026-05-06 23:35 | 19.59315 | -67.78244 | 37111 ft | 471 kts | 103° |
| 2026-05-06 23:35 | 19.57465 | -67.71637 | 37112 ft | 470 kts | 103° |
| 2026-05-06 23:36 | 19.55604 | -67.64938 | 37110 ft | 470 kts | 103° |
| 2026-05-06 23:36 | 19.53758 | -67.58329 | 37113 ft | 470 kts | 103° |
| 2026-05-06 23:37 | 19.51891 | -67.51681 | 37120 ft | 471 kts | 104° |
| 2026-05-06 23:37 | 19.50020 | -67.45026 | 37113 ft | 471 kts | 104° |
| 2026-05-06 23:38 | 19.48142 | -67.38364 | 37109 ft | 472 kts | 104° |
| 2026-05-06 23:38 | 19.46253 | -67.31700 | 37107 ft | 472 kts | 104° |
| 2026-05-06 23:39 | 19.44372 | -67.25034 | 37105 ft | 472 kts | 104° |
| 2026-05-06 23:39 | 19.42485 | -67.18353 | 37106 ft | 473 kts | 105° |
| 2026-05-06 23:40 | 19.40600 | -67.11676 | 37100 ft | 474 kts | 105° |
| 2026-05-06 23:40 | 19.38702 | -67.04982 | 37098 ft | 475 kts | 105° |
| 2026-05-06 23:41 | 19.36803 | -66.98320 | 37089 ft | 477 kts | 105° |
| 2026-05-06 23:41 | 19.34875 | -66.91575 | 37094 ft | 480 kts | 105° |
| 2026-05-06 23:42 | 19.32947 | -66.84800 | 37094 ft | 482 kts | 106° |
| 2026-05-06 23:42 | 19.31000 | -66.77998 | 37088 ft | 483 kts | 106° |
| 2026-05-06 23:43 | 19.29052 | -66.71200 | 37090 ft | 483 kts | 106° |
| 2026-05-06 23:43 | 19.27109 | -66.64399 | 37098 ft | 483 kts | 106° |
| 2026-05-06 23:44 | 19.25155 | -66.57590 | 37099 ft | 484 kts | 106° |
| 2026-05-06 23:44 | 19.23200 | -66.50777 | 37095 ft | 484 kts | 107° |
| 2026-05-06 23:45 | 19.21237 | -66.43945 | 37096 ft | 485 kts | 107° |
| 2026-05-06 23:45 | 19.19268 | -66.37115 | 37095 ft | 486 kts | 107° |
| 2026-05-06 23:46 | 19.17292 | -66.30271 | 37097 ft | 486 kts | 107° |
| 2026-05-06 23:46 | 19.15318 | -66.23430 | 37099 ft | 487 kts | 108° |
| 2026-05-06 23:47 | 19.13348 | -66.16617 | 37103 ft | 487 kts | 108° |
| 2026-05-06 23:47 | 19.11357 | -66.09760 | 37114 ft | 487 kts | 108° |
| 2026-05-06 23:48 | 19.09370 | -66.02925 | 37118 ft | 486 kts | 108° |
| 2026-05-06 23:48 | 19.07393 | -65.96123 | 37115 ft | 485 kts | 108° |
| 2026-05-06 23:49 | 19.05410 | -65.89318 | 37117 ft | 484 kts | 108° |
| 2026-05-06 23:49 | 19.03429 | -65.82519 | 37116 ft | 483 kts | 108° |
| 2026-05-06 23:50 | 19.01451 | -65.75733 | 37111 ft | 483 kts | 108° |
| 2026-05-06 23:50 | 18.98472 | -65.65563 | 37111 ft | 483 kts | 108° |
| 2026-05-06 23:51 | 18.96523 | -65.58922 | 37115 ft | 483 kts | 109° |
| 2026-05-06 23:51 | 18.94525 | -65.52139 | 37112 ft | 483 kts | 109° |
| 2026-05-06 23:52 | 18.92537 | -65.45365 | 37110 ft | 483 kts | 109° |
| 2026-05-06 23:52 | 18.90554 | -65.38593 | 36891 ft | 482 kts | 109° |
| 2026-05-06 23:53 | 18.89563 | -65.35217 | 36488 ft | 482 kts | 108° |
| 2026-05-06 23:53 | 18.88577 | -65.31881 | 36101 ft | 481 kts | 108° |
| 2026-05-06 23:53 | 18.87580 | -65.28512 | 35720 ft | 479 kts | 108° |
| 2026-05-06 23:53 | 18.86588 | -65.25160 | 35342 ft | 477 kts | 108° |
| 2026-05-06 23:54 | 18.85601 | -65.21831 | 34964 ft | 473 kts | 108° |
| 2026-05-06 23:54 | 18.84622 | -65.18526 | 34591 ft | 470 kts | 108° |
| 2026-05-06 23:54 | 18.83650 | -65.15245 | 34225 ft | 467 kts | 107° |
| 2026-05-06 23:54 | 18.82683 | -65.11983 | 33825 ft | 464 kts | 107° |
| 2026-05-06 23:55 | 18.81721 | -65.08751 | 33411 ft | 460 kts | 107° |
| 2026-05-06 23:55 | 18.80766 | -65.05538 | 33002 ft | 457 kts | 107° |
| 2026-05-06 23:55 | 18.79816 | -65.02340 | 32602 ft | 454 kts | 107° |
| 2026-05-06 23:55 | 18.78874 | -64.99171 | 32202 ft | 451 kts | 107° |
| 2026-05-06 23:56 | 18.77940 | -64.96021 | 31808 ft | 448 kts | 108° |
| 2026-05-06 23:56 | 18.77009 | -64.92888 | 31431 ft | 446 kts | 108° |
| 2026-05-06 23:56 | 18.76084 | -64.89772 | 31046 ft | 443 kts | 108° |
| 2026-05-06 23:56 | 18.75163 | -64.86677 | 30669 ft | 440 kts | 108° |
| 2026-05-06 23:57 | 18.74249 | -64.83609 | 30298 ft | 437 kts | 108° |
| 2026-05-06 23:57 | 18.73646 | -64.81586 | 30041 ft | 435 kts | 108° |
| 2026-05-06 23:57 | 18.72737 | -64.78549 | 29598 ft | 432 kts | 108° |
| 2026-05-06 23:57 | 18.71547 | -64.74570 | 29037 ft | 427 kts | 108° |
| 2026-05-06 23:58 | 18.70656 | -64.71590 | 28627 ft | 424 kts | 108° |
| 2026-05-06 23:58 | 18.69774 | -64.68639 | 28214 ft | 421 kts | 108° |
| 2026-05-06 23:58 | 18.68897 | -64.65699 | 27808 ft | 418 kts | 107° |
| 2026-05-06 23:58 | 18.68023 | -64.62782 | 27409 ft | 416 kts | 108° |
| 2026-05-06 23:59 | 18.67445 | -64.60861 | 27217 ft | 412 kts | 107° |
| 2026-05-06 23:59 | 18.66572 | -64.57957 | 26833 ft | 409 kts | 107° |
| 2026-05-06 23:59 | 18.65725 | -64.55140 | 26461 ft | 406 kts | 107° |
| 2026-05-06 23:59 | 18.64877 | -64.52310 | 26078 ft | 403 kts | 107° |
| 2026-05-07 00:00 | 18.64039 | -64.49497 | 25688 ft | 402 kts | 107° |
| 2026-05-07 00:00 | 18.63192 | -64.46658 | 25289 ft | 400 kts | 107° |
| 2026-05-07 00:00 | 18.62364 | -64.43908 | 24907 ft | 397 kts | 107° |
| 2026-05-07 00:00 | 18.61529 | -64.41143 | 24523 ft | 395 kts | 107° |
| 2026-05-07 00:01 | 18.60700 | -64.38392 | 24142 ft | 392 kts | 107° |
| 2026-05-07 00:01 | 18.59873 | -64.35658 | 23767 ft | 390 kts | 107° |
| 2026-05-07 00:01 | 18.59053 | -64.32948 | 23344 ft | 387 kts | 107° |
| 2026-05-07 00:01 | 18.58239 | -64.30254 | 22921 ft | 384 kts | 106° |
| 2026-05-07 00:02 | 18.57434 | -64.27581 | 22465 ft | 381 kts | 106° |
| 2026-05-07 00:02 | 18.56637 | -64.24929 | 22032 ft | 378 kts | 106° |
| 2026-05-07 00:02 | 18.55845 | -64.22301 | 21612 ft | 376 kts | 106° |
| 2026-05-07 00:02 | 18.55055 | -64.19680 | 21190 ft | 373 kts | 106° |
| 2026-05-07 00:03 | 18.54270 | -64.17084 | 20774 ft | 370 kts | 106° |
| 2026-05-07 00:03 | 18.53492 | -64.14506 | 20359 ft | 368 kts | 106° |
| 2026-05-07 00:03 | 18.52716 | -64.11944 | 19967 ft | 366 kts | 106° |
| 2026-05-07 00:03 | 18.51943 | -64.09398 | 19574 ft | 364 kts | 106° |
| 2026-05-07 00:04 | 18.51172 | -64.06866 | 19190 ft | 362 kts | 106° |
| 2026-05-07 00:04 | 18.50405 | -64.04340 | 18802 ft | 361 kts | 106° |
| 2026-05-07 00:04 | 18.49646 | -64.01825 | 18418 ft | 359 kts | 106° |
| 2026-05-07 00:04 | 18.48890 | -63.99323 | 18011 ft | 357 kts | 106° |
| 2026-05-07 00:05 | 18.48140 | -63.96840 | 17602 ft | 355 kts | 106° |
| 2026-05-07 00:05 | 18.47392 | -63.94376 | 17197 ft | 352 kts | 106° |
| 2026-05-07 00:05 | 18.46646 | -63.91930 | 16803 ft | 350 kts | 106° |
| 2026-05-07 00:05 | 18.45905 | -63.89499 | 16406 ft | 347 kts | 106° |
| 2026-05-07 00:06 | 18.45170 | -63.87084 | 16015 ft | 345 kts | 106° |
| 2026-05-07 00:06 | 18.44441 | -63.84687 | 15592 ft | 343 kts | 107° |
| 2026-05-07 00:06 | 18.43711 | -63.82299 | 15201 ft | 341 kts | 106° |
| 2026-05-07 00:06 | 18.42987 | -63.79926 | 14804 ft | 339 kts | 106° |
| 2026-05-07 00:07 | 18.42271 | -63.77569 | 14413 ft | 337 kts | 106° |
| 2026-05-07 00:07 | 18.41550 | -63.75224 | 14023 ft | 336 kts | 109° |
| 2026-05-07 00:07 | 18.40419 | -63.73089 | 13613 ft | 335 kts | 129° |
| 2026-05-07 00:07 | 18.38867 | -63.71279 | 13225 ft | 332 kts | 132° |
| 2026-05-07 00:08 | 18.37292 | -63.69505 | 12816 ft | 330 kts | 132° |
| 2026-05-07 00:08 | 18.35721 | -63.67750 | 12424 ft | 328 kts | 133° |
| 2026-05-07 00:08 | 18.34193 | -63.66047 | 12024 ft | 318 kts | 132° |
| 2026-05-07 00:08 | 18.32691 | -63.64374 | 11653 ft | 311 kts | 132° |
| 2026-05-07 00:09 | 18.31207 | -63.62719 | 11292 ft | 310 kts | 132° |
| 2026-05-07 00:09 | 18.29747 | -63.61088 | 10947 ft | 309 kts | 132° |
| 2026-05-07 00:09 | 18.28280 | -63.59448 | 10601 ft | 307 kts | 132° |
| 2026-05-07 00:09 | 18.26822 | -63.57814 | 10259 ft | 305 kts | 133° |
| 2026-05-07 00:10 | 18.25371 | -63.56190 | 9906 ft | 304 kts | 133° |
| 2026-05-07 00:10 | 18.23926 | -63.54576 | 9530 ft | 302 kts | 133° |
| 2026-05-07 00:10 | 18.22487 | -63.52969 | 9148 ft | 300 kts | 133° |
| 2026-05-07 00:10 | 18.21061 | -63.51375 | 8773 ft | 299 kts | 132° |
| 2026-05-07 00:11 | 18.19642 | -63.49788 | 8410 ft | 297 kts | 132° |
| 2026-05-07 00:11 | 18.18230 | -63.48211 | 8049 ft | 295 kts | 133° |
| 2026-05-07 00:11 | 18.16834 | -63.46654 | 7804 ft | 289 kts | 133° |
| 2026-05-07 00:11 | 18.15474 | -63.45137 | 7322 ft | 285 kts | 133° |
| 2026-05-07 00:12 | 18.14104 | -63.43611 | 6684 ft | 287 kts | 133° |
| 2026-05-07 00:12 | 18.12730 | -63.42084 | 6220 ft | 287 kts | 133° |
| 2026-05-07 00:12 | 18.11368 | -63.40568 | 5925 ft | 281 kts | 133° |
| 2026-05-07 00:12 | 18.10053 | -63.39103 | 5522 ft | 272 kts | 133° |
| 2026-05-07 00:13 | 18.08775 | -63.37679 | 5100 ft | 264 kts | 133° |
| 2026-05-07 00:13 | 18.07542 | -63.36305 | 4815 ft | 254 kts | 133° |
| 2026-05-07 00:13 | 18.06331 | -63.34958 | 4493 ft | 252 kts | 133° |
| 2026-05-07 00:13 | 18.05153 | -63.33649 | 4189 ft | 241 kts | 132° |
| 2026-05-07 00:14 | 18.04031 | -63.32403 | 3923 ft | 228 kts | 132° |
| 2026-05-07 00:14 | 18.02974 | -63.31227 | 3633 ft | 215 kts | 131° |
| 2026-05-07 00:14 | 18.02144 | -63.29967 | 3378 ft | 206 kts | 114° |
| 2026-05-07 00:14 | 18.01749 | -63.28592 | 3127 ft | 193 kts | 98° |
| 2026-05-07 00:15 | 18.01748 | -63.27219 | 2873 ft | 184 kts | 82° |
| 2026-05-07 00:15 | 18.01946 | -63.25936 | 2715 ft | 166 kts | 82° |
| 2026-05-07 00:15 | 18.02112 | -63.24800 | 2668 ft | 151 kts | 82° |
| 2026-05-07 00:15 | 18.02266 | -63.23740 | 2636 ft | 145 kts | 83° |
| 2026-05-07 00:16 | 18.02425 | -63.22681 | 2380 ft | 147 kts | 81° |
| 2026-05-07 00:16 | 18.02590 | -63.21639 | 2012 ft | 143 kts | 81° |
| 2026-05-07 00:16 | 18.02735 | -63.20621 | 1714 ft | 139 kts | 83° |
| 2026-05-07 00:16 | 18.02883 | -63.19607 | 1485 ft | 140 kts | 83° |
| 2026-05-07 00:17 | 18.03018 | -63.18598 | 1276 ft | 138 kts | 82° |
| 2026-05-07 00:17 | 18.03138 | -63.17589 | 1114 ft | 139 kts | 82° |
| 2026-05-07 00:17 | 18.03273 | -63.16581 | 949 ft | 140 kts | 82° |
| 2026-05-07 00:17 | 18.03420 | -63.15566 | 731 ft | 138 kts | 82° |
| 2026-05-07 00:18 | 18.03546 | -63.14560 | 590 ft | 139 kts | 81° |
| 2026-05-07 00:18 | 18.03713 | -63.13575 | 436 ft | 138 kts | 83° |
| 2026-05-07 00:18 | 18.03844 | -63.12564 | 223 ft | 141 kts | 81° |
| 2026-05-07 00:18 | 18.03997 | -63.11538 | 28 ft | 139 kts | 82° |
| 2026-05-07 00:19 | 18.04123 | -63.10684 | 21 ft | 94 kts | 81° |
| 2026-05-07 00:19 | 18.04197 | -63.10181 | 19 ft | 45 kts | 81° |
| 2026-05-07 00:19 | 18.04237 | -63.09941 | 20 ft | 26 kts | 62° |
| 2026-05-07 00:19 | 18.04271 | -63.09852 | 21 ft | 7 kts | 140° |
| 2026-05-07 00:20 | 18.04244 | -63.09873 | 21 ft | 7 kts | 243° |
| 2026-05-07 00:20 | 18.04233 | -63.09932 | 20 ft | 10 kts | 262° |
| 2026-05-07 00:20 | 18.04222 | -63.10010 | 19 ft | 12 kts | 263° |
| 2026-05-07 00:20 | 18.04211 | -63.10104 | 19 ft | 14 kts | 262° |
| 2026-05-07 00:21 | 18.04195 | -63.10217 | 19 ft | 17 kts | 261° |
| 2026-05-07 00:21 | 18.04175 | -63.10342 | 20 ft | 18 kts | 261° |
| 2026-05-07 00:21 | 18.04156 | -63.10474 | 24 ft | 19 kts | 261° |
| 2026-05-07 00:21 | 18.04137 | -63.10610 | 21 ft | 19 kts | 263° |
| 2026-05-07 00:22 | 18.04116 | -63.10752 | 23 ft | 21 kts | 259° |
| 2026-05-07 00:22 | 18.04092 | -63.10905 | 21 ft | 22 kts | 262° |
| 2026-05-07 00:22 | 18.04071 | -63.11057 | 25 ft | 15 kts | 262° |
| 2026-05-07 00:22 | 18.04101 | -63.11153 | 22 ft | 16 kts | 339° |
| 2026-05-07 00:23 | 18.04142 | -63.11229 | 21 ft | 13 kts | 261° |
| 2026-05-07 00:23 | 18.04173 | -63.11300 | 21 ft | 13 kts | 341° |
| 2026-05-07 00:23 | 18.04253 | -63.11342 | 21 ft | 10 kts | 328° |
| 2026-05-07 00:23 | 18.04297 | -63.11357 | 21 ft | 5 kts | 350° |
| 2026-05-07 00:24 | 18.04315 | -63.11360 | 21 ft | 3 kts | 352° |
| 2026-05-07 00:24 | 18.04327 | -63.11362 | 21 ft | 0 kts | 351° |